Wolf Summit, West Virginia
Current Conditions -  °F | °C
As of 4:53 AM on Friday 19 Dec 2014 (Local Time) from KCKB Reporting Station
Overcast Overcast  
Wind Chill: 20°   Ceiling: 1900
Heat Index: 27°   Visibility: 10mi
Dew Point: 21°   Wind: 6mph
Humidity: 78%   Direction: 300°WNW
Pressure: 30.17"   Gusts: NA
Location:  39.3132°N, 80.625°W
Report Text: KCKB 190953Z 30005KT 10SM OVC019 M03/M06 A3017 RMK AO2 SLP227 T10281061
Loading
Personal Weather Stations






























Interactive Weather Map New forecast layout! Learn more

10-Day Weather Forecast

Advertisements
Track Severe Weather on mobile